createdAt,value
2024-01-07T00:00:00.305Z,15.00
2024-01-07T00:00:32.542Z,14.87
2024-01-07T00:01:04.890Z,15.87
2024-01-07T00:01:39.945Z,15.33
2024-01-07T00:02:12.016Z,15.53
2024-01-07T00:02:46.843Z,15.10
2024-01-07T00:03:19.034Z,16.03
2024-01-07T00:03:52.676Z,16.57
2024-01-07T00:04:24.881Z,15.13
2024-01-07T00:04:57.135Z,15.87
2024-01-07T00:05:33.555Z,16.17
2024-01-07T00:06:06.565Z,15.17
2024-01-07T00:06:38.628Z,15.83
2024-01-07T00:07:10.766Z,14.93
2024-01-07T00:07:42.856Z,15.37
2024-01-07T00:08:15.038Z,14.60
2024-01-07T00:08:47.021Z,15.70
2024-01-07T00:09:19.022Z,15.13
2024-01-07T00:09:51.183Z,14.63
2024-01-07T00:10:23.305Z,14.67
2024-01-07T00:10:55.791Z,14.97
2024-01-07T00:11:28.445Z,15.67
2024-01-07T00:12:00.501Z,16.40
2024-01-07T00:12:32.686Z,15.83
2024-01-07T00:13:05.187Z,15.80
2024-01-07T00:13:37.746Z,15.23
2024-01-07T00:14:09.756Z,15.20
2024-01-07T00:14:41.770Z,15.33
2024-01-07T00:15:13.758Z,14.70
2024-01-07T00:15:45.843Z,15.47
2024-01-07T00:16:17.871Z,16.17
2024-01-07T00:16:49.943Z,15.57
2024-01-07T00:17:22.393Z,15.20
2024-01-07T00:17:54.573Z,15.80
2024-01-07T00:18:26.859Z,15.70
2024-01-07T00:18:59.180Z,15.70
2024-01-07T00:19:31.322Z,14.83
2024-01-07T00:20:03.637Z,16.00
2024-01-07T00:20:37.106Z,16.30
2024-01-07T00:21:09.139Z,16.00
2024-01-07T00:21:41.120Z,15.20
2024-01-07T00:22:13.322Z,15.77
2024-01-07T00:22:45.338Z,15.73
2024-01-07T00:23:17.368Z,15.57
2024-01-07T00:23:49.393Z,14.73
2024-01-07T00:24:21.466Z,14.93
2024-01-07T00:24:53.687Z,15.17
2024-01-07T00:25:25.923Z,14.80
2024-01-07T00:25:58.205Z,15.27
2024-01-07T00:26:30.229Z,16.03
2024-01-07T00:27:02.270Z,15.97
2024-01-07T00:27:34.308Z,16.00
2024-01-07T00:28:06.780Z,15.10
2024-01-07T00:28:44.727Z,15.30
2024-01-07T00:29:16.745Z,15.67
2024-01-07T00:29:48.867Z,15.53
2024-01-07T00:30:20.940Z,14.63
2024-01-07T00:30:53.200Z,14.70
2024-01-07T00:31:25.392Z,15.37
2024-01-07T00:31:59.979Z,14.33
2024-01-07T00:32:32.003Z,15.60
2024-01-07T00:33:04.253Z,15.27
2024-01-07T00:33:36.594Z,15.97
2024-01-07T00:34:08.763Z,16.17
2024-01-07T00:34:41.242Z,15.50
2024-01-07T00:35:13.409Z,15.53
2024-01-07T00:35:46.913Z,15.33
2024-01-07T00:36:18.966Z,15.23
2024-01-07T00:36:51.292Z,15.00
2024-01-07T00:37:23.349Z,15.70
2024-01-07T00:37:55.393Z,15.00
2024-01-07T00:38:27.399Z,15.57
2024-01-07T00:38:59.454Z,14.87
2024-01-07T00:39:31.580Z,15.37
2024-01-07T00:40:04.051Z,15.73
2024-01-07T00:40:36.240Z,15.20
2024-01-07T00:41:08.214Z,15.87
2024-01-07T00:41:40.209Z,15.57
2024-01-07T00:42:12.242Z,15.10
2024-01-07T00:42:44.302Z,15.80
2024-01-07T00:43:16.342Z,15.07
2024-01-07T00:43:48.325Z,15.30
2024-01-07T00:44:20.371Z,15.07
2024-01-07T00:44:52.421Z,15.43
2024-01-07T00:45:24.469Z,14.83
2024-01-07T00:45:56.498Z,15.30
2024-01-07T00:46:28.688Z,15.33
2024-01-07T00:47:00.945Z,14.73
2024-01-07T00:47:33.029Z,15.20
2024-01-07T00:48:05.983Z,15.00
2024-01-07T00:48:38.208Z,14.57
2024-01-07T00:49:10.401Z,15.10
2024-01-07T00:49:42.560Z,14.83
2024-01-07T00:50:14.729Z,14.93
2024-01-07T00:50:48.281Z,14.57
2024-01-07T00:51:20.275Z,14.83
2024-01-07T00:51:52.826Z,14.83
2024-01-07T00:52:24.877Z,15.57
2024-01-07T00:52:56.932Z,14.60
2024-01-07T00:53:29.553Z,14.63
2024-01-07T00:54:01.602Z,14.77
2024-01-07T00:54:33.752Z,15.37
2024-01-07T00:55:07.195Z,15.80
2024-01-07T00:55:39.332Z,15.90
2024-01-07T00:56:11.346Z,14.37
2024-01-07T00:56:43.683Z,14.70
2024-01-07T00:57:15.737Z,14.77
2024-01-07T00:57:47.830Z,15.20
2024-01-07T00:58:19.948Z,14.50
2024-01-07T00:58:52.016Z,15.17
2024-01-07T00:59:24.271Z,14.77
2024-01-07T00:59:56.294Z,15.53
2024-01-07T01:00:28.334Z,15.10
2024-01-07T01:01:00.491Z,15.37
2024-01-07T01:01:32.673Z,14.87
2024-01-07T01:02:05.189Z,15.63
2024-01-07T01:02:38.701Z,14.20
2024-01-07T01:03:10.716Z,14.73
2024-01-07T01:03:42.809Z,15.13
2024-01-07T01:04:15.246Z,15.30
2024-01-07T01:04:47.594Z,14.93
2024-01-07T01:05:19.723Z,13.90
2024-01-07T01:05:53.307Z,14.60
2024-01-07T01:06:25.582Z,14.93
2024-01-07T01:06:57.797Z,14.43
2024-01-07T01:07:29.902Z,14.93
2024-01-07T01:08:01.944Z,15.37
2024-01-07T01:08:34.055Z,14.53
2024-01-07T01:09:06.182Z,13.53
2024-01-07T01:09:38.207Z,13.47
2024-01-07T01:10:11.190Z,14.73
2024-01-07T01:10:43.339Z,14.23
2024-01-07T01:11:15.858Z,14.30
2024-01-07T01:11:48.033Z,15.03
2024-01-07T01:12:20.065Z,14.50
2024-01-07T01:12:52.087Z,14.80
2024-01-07T01:13:24.138Z,14.53
2024-01-07T01:13:56.169Z,14.50
2024-01-07T01:14:28.807Z,14.57
2024-01-07T01:15:00.891Z,14.60
2024-01-07T01:15:32.924Z,14.80
2024-01-07T01:16:05.547Z,15.17
2024-01-07T01:16:37.716Z,15.00
2024-01-07T01:17:09.765Z,14.37
2024-01-07T01:17:41.881Z,14.23
2024-01-07T01:18:14.010Z,15.23
2024-01-07T01:18:46.114Z,14.57
2024-01-07T01:19:19.049Z,14.77
2024-01-07T01:19:51.195Z,15.57
2024-01-07T01:20:23.313Z,15.70
2024-01-07T01:20:57.009Z,15.13
2024-01-07T01:21:29.196Z,15.17
2024-01-07T01:22:01.351Z,14.83
2024-01-07T01:22:33.566Z,15.40
2024-01-07T01:23:05.549Z,14.97
2024-01-07T01:23:37.630Z,14.33
2024-01-07T01:24:09.694Z,15.07
2024-01-07T01:24:41.775Z,15.27
2024-01-07T01:25:14.120Z,15.70
2024-01-07T01:25:46.231Z,14.80
2024-01-07T01:26:18.263Z,14.27
2024-01-07T01:26:50.277Z,14.83
2024-01-07T01:27:22.311Z,15.00
2024-01-07T01:27:54.433Z,15.37
2024-01-07T01:28:26.465Z,15.20
2024-01-07T01:28:58.545Z,15.93
2024-01-07T01:29:30.674Z,14.33
2024-01-07T01:30:02.752Z,14.43
2024-01-07T01:30:34.911Z,13.97
2024-01-07T01:31:07.166Z,14.73
2024-01-07T01:31:39.313Z,14.30
2024-01-07T01:32:11.427Z,14.03
2024-01-07T01:32:43.950Z,14.73
2024-01-07T01:33:16.034Z,13.73
2024-01-07T01:33:48.451Z,14.00
2024-01-07T01:34:20.765Z,14.53
2024-01-07T01:34:53.205Z,13.93
2024-01-07T01:35:25.285Z,14.40
2024-01-07T01:36:05.080Z,14.67
2024-01-07T01:36:37.135Z,15.33
2024-01-07T01:37:10.361Z,15.07
2024-01-07T01:37:42.406Z,14.33
2024-01-07T01:38:14.591Z,14.03
2024-01-07T01:38:46.621Z,14.80
2024-01-07T01:39:18.659Z,14.70
2024-01-07T01:39:50.671Z,14.40
2024-01-07T01:40:22.705Z,13.43
2024-01-07T01:40:55.206Z,13.73
2024-01-07T01:41:27.244Z,14.13
2024-01-07T01:41:59.447Z,15.07
2024-01-07T01:42:31.534Z,14.60
2024-01-07T01:43:03.860Z,13.87
2024-01-07T01:43:36.022Z,13.87
2024-01-07T01:44:08.067Z,13.57
2024-01-07T01:44:47.816Z,13.93
2024-01-07T01:45:20.045Z,15.07
2024-01-07T01:45:52.342Z,14.23
2024-01-07T01:46:24.799Z,13.47
2024-01-07T01:46:57.057Z,14.03
2024-01-07T01:47:31.138Z,14.13
2024-01-07T01:48:03.586Z,13.97
2024-01-07T01:48:37.391Z,14.57
2024-01-07T01:49:10.085Z,14.57
2024-01-07T01:49:42.576Z,14.00
2024-01-07T01:50:14.904Z,14.10
2024-01-07T01:50:48.604Z,13.77
2024-01-07T01:51:22.492Z,13.87
2024-01-07T01:51:55.111Z,14.33
2024-01-07T01:52:28.320Z,14.37
2024-01-07T01:53:00.802Z,15.13
2024-01-07T01:53:34.369Z,15.77
2024-01-07T01:54:07.239Z,14.70
2024-01-07T01:54:40.460Z,15.10
2024-01-07T01:55:13.487Z,14.93
2024-01-07T01:55:45.732Z,14.30
2024-01-07T01:56:19.514Z,14.13
2024-01-07T01:56:52.292Z,13.70
2024-01-07T01:57:29.875Z,14.50
2024-01-07T01:58:04.160Z,13.80
2024-01-07T01:58:36.430Z,14.33
2024-01-07T01:59:09.666Z,13.97
2024-01-07T01:59:43.677Z,13.17
2024-01-07T02:00:16.566Z,13.43
2024-01-07T02:00:49.172Z,14.53
2024-01-07T02:01:21.329Z,14.03
2024-01-07T02:01:53.820Z,14.63
2024-01-07T02:02:25.957Z,14.50
2024-01-07T02:02:58.153Z,14.93
2024-01-07T02:03:30.305Z,14.70
2024-01-07T02:04:02.461Z,14.20
2024-01-07T02:04:35.146Z,13.70
2024-01-07T02:05:07.407Z,14.80
2024-01-07T02:05:39.830Z,14.67
2024-01-07T02:06:12.107Z,14.33
2024-01-07T02:06:46.661Z,15.23
2024-01-07T02:07:18.820Z,14.90
2024-01-07T02:07:51.399Z,14.20
2024-01-07T02:08:23.883Z,14.27
2024-01-07T02:08:56.735Z,14.83
2024-01-07T02:09:28.751Z,14.03
2024-01-07T02:10:01.307Z,13.50
2024-01-07T02:10:33.416Z,13.50
2024-01-07T02:11:21.320Z,13.67
2024-01-07T02:12:03.179Z,14.60
2024-01-07T02:12:35.289Z,15.00
2024-01-07T02:13:07.767Z,15.03
2024-01-07T02:13:40.167Z,14.53
2024-01-07T02:14:15.081Z,14.27
2024-01-07T02:14:47.133Z,15.47
2024-01-07T02:15:19.146Z,14.60
2024-01-07T02:15:51.333Z,13.80
2024-01-07T02:16:23.596Z,14.00
2024-01-07T02:16:55.816Z,14.53
2024-01-07T02:17:28.342Z,14.43
2024-01-07T02:18:00.732Z,15.10
2024-01-07T02:18:32.977Z,15.07
2024-01-07T02:19:08.732Z,14.93
2024-01-07T02:19:40.868Z,15.10
2024-01-07T02:20:12.956Z,14.70
2024-01-07T02:20:45.000Z,14.97
2024-01-07T02:21:17.375Z,15.00
2024-01-07T02:21:51.845Z,14.73
2024-01-07T02:22:24.114Z,14.60
2024-01-07T02:22:56.124Z,14.50
2024-01-07T02:23:28.157Z,15.33
2024-01-07T02:24:05.915Z,15.13
2024-01-07T02:24:37.954Z,14.27
2024-01-07T02:25:10.393Z,14.83
2024-01-07T02:25:42.472Z,14.97
2024-01-07T02:26:14.462Z,15.33
2024-01-07T02:26:46.632Z,15.97
2024-01-07T02:27:18.670Z,16.03
2024-01-07T02:27:50.820Z,15.30
2024-01-07T02:28:22.926Z,15.60
2024-01-07T02:28:54.904Z,14.93
2024-01-07T02:29:26.896Z,15.60
2024-01-07T02:29:58.966Z,15.27
2024-01-07T02:30:31.009Z,15.17
2024-01-07T02:31:03.159Z,14.40
2024-01-07T02:31:35.316Z,14.10
2024-01-07T02:32:07.670Z,15.53
2024-01-07T02:32:39.866Z,14.97
2024-01-07T02:33:12.087Z,14.70
2024-01-07T02:33:44.305Z,14.57
2024-01-07T02:34:16.585Z,15.50
2024-01-07T02:34:48.682Z,14.63
2024-01-07T02:35:20.757Z,14.20
2024-01-07T02:35:53.016Z,14.27
2024-01-07T02:36:25.075Z,14.97
2024-01-07T02:36:57.237Z,14.80
2024-01-07T02:37:29.296Z,14.90
2024-01-07T02:38:01.366Z,15.27
2024-01-07T02:38:33.366Z,15.27
2024-01-07T02:39:06.706Z,14.80
2024-01-07T02:39:38.759Z,14.67
2024-01-07T02:40:11.944Z,14.53
2024-01-07T02:40:44.042Z,14.07
2024-01-07T02:41:16.341Z,14.77
2024-01-07T02:41:49.033Z,15.13
2024-01-07T02:42:21.095Z,14.90
2024-01-07T02:42:53.132Z,15.57
2024-01-07T02:43:25.200Z,15.27
2024-01-07T02:43:57.345Z,15.40
2024-01-07T02:44:29.352Z,15.60
2024-01-07T02:45:01.405Z,15.63
2024-01-07T02:45:33.386Z,16.13
2024-01-07T02:46:05.470Z,15.43
2024-01-07T02:46:37.654Z,15.57
2024-01-07T02:47:09.696Z,15.77
2024-01-07T02:47:41.762Z,16.00
2024-01-07T02:48:13.863Z,15.73
2024-01-07T02:48:46.114Z,15.77
2024-01-07T02:49:18.350Z,15.53
2024-01-07T02:49:50.537Z,15.90
2024-01-07T02:50:22.671Z,16.27
2024-01-07T02:50:54.660Z,16.03
2024-01-07T02:51:26.721Z,16.33
2024-01-07T02:51:59.005Z,16.47
2024-01-07T02:52:31.123Z,17.13
2024-01-07T02:53:03.170Z,15.80
2024-01-07T02:53:35.183Z,16.33
2024-01-07T02:54:08.706Z,16.97
2024-01-07T02:54:40.725Z,16.83
2024-01-07T02:55:12.968Z,15.40
2024-01-07T02:55:44.999Z,16.10
2024-01-07T02:56:17.007Z,15.73
2024-01-07T02:56:49.116Z,15.83
2024-01-07T02:57:21.129Z,15.53
2024-01-07T02:57:53.406Z,16.50
2024-01-07T02:58:25.394Z,15.67
2024-01-07T02:58:57.427Z,16.10
2024-01-07T02:59:29.627Z,15.53
2024-01-07T03:00:01.694Z,16.13
2024-01-07T03:00:33.771Z,15.20
2024-01-07T03:01:09.972Z,16.00
2024-01-07T03:01:42.128Z,15.87
2024-01-07T03:02:14.177Z,16.17
2024-01-07T03:02:46.248Z,16.17
2024-01-07T03:03:18.289Z,15.50
2024-01-07T03:03:51.192Z,16.20
2024-01-07T03:04:23.215Z,15.07
2024-01-07T03:04:55.275Z,15.10
2024-01-07T03:05:27.354Z,15.93
2024-01-07T03:05:59.459Z,16.40
2024-01-07T03:06:31.608Z,15.47
2024-01-07T03:07:03.835Z,15.83
2024-01-07T03:07:36.157Z,15.93
2024-01-07T03:08:08.141Z,15.27
2024-01-07T03:08:40.151Z,14.27
2024-01-07T03:09:13.470Z,14.73
2024-01-07T03:09:48.486Z,15.33
2024-01-07T03:10:20.903Z,16.03
2024-01-07T03:10:53.053Z,15.63
2024-01-07T03:11:25.238Z,16.30
2024-01-07T03:11:57.302Z,16.07
2024-01-07T03:12:29.321Z,15.83
2024-01-07T03:13:01.394Z,15.50
2024-01-07T03:13:33.704Z,15.70
2024-01-07T03:14:05.799Z,16.93
2024-01-07T03:14:37.815Z,17.17
2024-01-07T03:15:10.229Z,17.27
2024-01-07T03:15:42.355Z,17.23
2024-01-07T03:16:20.808Z,17.07
2024-01-07T03:16:52.882Z,18.17
2024-01-07T03:17:25.115Z,17.87
2024-01-07T03:17:58.839Z,19.17
2024-01-07T03:18:31.572Z,19.10
2024-01-07T03:19:03.937Z,19.17
2024-01-07T03:19:36.156Z,19.70
2024-01-07T03:20:09.284Z,18.97
2024-01-07T03:20:41.323Z,18.80
2024-01-07T03:21:18.457Z,17.87
2024-01-07T03:21:50.824Z,19.17
2024-01-07T03:22:22.858Z,18.47
2024-01-07T03:22:54.905Z,19.10
2024-01-07T03:23:26.940Z,19.27
2024-01-07T03:23:59.007Z,18.60
2024-01-07T03:24:32.487Z,18.43
2024-01-07T03:25:05.453Z,18.93
2024-01-07T03:25:37.760Z,18.97
2024-01-07T03:26:09.768Z,19.93
2024-01-07T03:26:41.805Z,19.57
2024-01-07T03:27:13.840Z,19.67
2024-01-07T03:27:46.046Z,18.97
2024-01-07T03:28:18.266Z,18.23
2024-01-07T03:28:50.270Z,18.47
2024-01-07T03:29:22.309Z,18.17
2024-01-07T03:29:54.310Z,18.23
2024-01-07T03:30:26.567Z,18.37
2024-01-07T03:30:58.818Z,18.33
2024-01-07T03:31:31.095Z,18.17
2024-01-07T03:32:03.313Z,19.10
2024-01-07T03:32:35.353Z,18.73
2024-01-07T03:33:07.555Z,19.10
2024-01-07T03:33:40.111Z,18.70
2024-01-07T03:34:12.323Z,18.27
2024-01-07T03:34:44.813Z,17.23
2024-01-07T03:35:16.989Z,18.13
2024-01-07T03:35:48.992Z,18.30
2024-01-07T03:36:21.388Z,18.07
2024-01-07T03:36:53.363Z,16.70
2024-01-07T03:37:25.541Z,18.33
2024-01-07T03:37:57.500Z,18.63
2024-01-07T03:38:29.666Z,19.50
2024-01-07T03:39:01.665Z,19.30
2024-01-07T03:39:35.187Z,18.50
2024-01-07T03:40:11.543Z,18.53
2024-01-07T03:40:43.950Z,17.03
2024-01-07T03:41:17.400Z,17.13
2024-01-07T03:41:49.405Z,19.43
2024-01-07T03:42:21.407Z,19.83
2024-01-07T03:42:53.508Z,20.43
2024-01-07T03:43:25.684Z,20.50
2024-01-07T03:43:57.796Z,19.10
2024-01-07T03:44:30.304Z,19.17
2024-01-07T03:45:02.501Z,19.17
2024-01-07T03:45:34.601Z,18.63
2024-01-07T03:46:06.690Z,20.17
2024-01-07T03:46:38.759Z,19.90
2024-01-07T03:47:11.209Z,20.47
2024-01-07T03:47:43.297Z,20.53
2024-01-07T03:48:18.609Z,20.00
2024-01-07T03:48:50.941Z,18.33
2024-01-07T03:49:23.333Z,17.90
2024-01-07T03:49:55.342Z,17.13
2024-01-07T03:50:27.420Z,17.37
2024-01-07T03:50:59.578Z,18.17
2024-01-07T03:51:31.721Z,20.50
2024-01-07T03:52:04.095Z,20.30
2024-01-07T03:52:36.138Z,19.57
2024-01-07T03:53:08.374Z,19.17
2024-01-07T03:53:40.659Z,20.53
2024-01-07T03:54:12.617Z,20.07
2024-01-07T03:54:46.005Z,20.87
2024-01-07T03:55:18.042Z,22.13
2024-01-07T03:55:53.051Z,20.67
2024-01-07T03:56:25.122Z,20.43
2024-01-07T03:56:58.143Z,20.67
2024-01-07T03:57:30.201Z,21.37
2024-01-07T03:58:02.482Z,20.90
2024-01-07T03:58:34.495Z,20.73
2024-01-07T03:59:06.597Z,20.23
2024-01-07T03:59:38.920Z,20.73
2024-01-07T04:00:11.864Z,20.83
2024-01-07T04:00:43.996Z,20.37
2024-01-07T04:01:17.992Z,19.60
2024-01-07T04:01:50.187Z,19.53
2024-01-07T04:02:22.274Z,19.17
2024-01-07T04:02:54.268Z,18.97
2024-01-07T04:03:26.771Z,18.83
2024-01-07T04:03:58.888Z,18.57
2024-01-07T04:04:31.552Z,19.03
2024-01-07T04:05:03.798Z,18.73
2024-01-07T04:05:35.843Z,17.43
2024-01-07T04:06:08.120Z,17.77
2024-01-07T04:06:40.180Z,18.07
2024-01-07T04:07:12.465Z,17.77
2024-01-07T04:07:44.637Z,17.40
2024-01-07T04:08:17.973Z,17.20
2024-01-07T04:08:49.956Z,17.33
2024-01-07T04:09:22.061Z,17.17
2024-01-07T04:09:55.442Z,17.40
2024-01-07T04:10:27.473Z,16.53
2024-01-07T04:10:59.481Z,17.13
2024-01-07T04:11:31.509Z,16.23
2024-01-07T04:12:04.264Z,16.57
2024-01-07T04:12:36.310Z,16.57
2024-01-07T04:13:11.744Z,16.53
2024-01-07T04:13:43.822Z,16.10
2024-01-07T04:14:16.593Z,16.73
2024-01-07T04:14:48.686Z,17.37
2024-01-07T04:15:21.281Z,17.07
2024-01-07T04:15:53.727Z,18.33
2024-01-07T04:16:25.716Z,17.53
2024-01-07T04:16:57.697Z,16.97
2024-01-07T04:17:29.831Z,16.90
2024-01-07T04:18:02.772Z,16.23
2024-01-07T04:18:34.895Z,16.23
2024-01-07T04:19:07.207Z,16.97
2024-01-07T04:19:39.665Z,16.63
2024-01-07T04:20:14.336Z,17.13
2024-01-07T04:20:46.394Z,17.30
2024-01-07T04:21:18.470Z,16.40
2024-01-07T04:21:50.804Z,15.77
2024-01-07T04:22:22.864Z,15.33
2024-01-07T04:22:55.022Z,15.30
2024-01-07T04:23:27.127Z,16.07
2024-01-07T04:23:59.138Z,15.90
2024-01-07T04:24:31.173Z,15.23
2024-01-07T04:25:05.419Z,14.80
2024-01-07T04:25:37.444Z,15.50
2024-01-07T04:26:09.511Z,15.47
2024-01-07T04:26:41.699Z,15.17
2024-01-07T04:27:13.784Z,15.40
2024-01-07T04:27:46.213Z,15.40
2024-01-07T04:28:18.302Z,15.00
2024-01-07T04:28:50.656Z,14.60
2024-01-07T04:29:22.646Z,14.30
2024-01-07T04:29:54.667Z,14.13
2024-01-07T04:30:26.956Z,14.57
2024-01-07T04:30:59.202Z,15.10
2024-01-07T04:31:31.663Z,15.13
2024-01-07T04:32:04.195Z,15.13
2024-01-07T04:32:36.251Z,13.90
2024-01-07T04:33:08.634Z,13.87
2024-01-07T04:33:40.881Z,13.87
2024-01-07T04:34:13.085Z,14.00
2024-01-07T04:34:45.242Z,14.03
2024-01-07T04:35:20.771Z,14.27
2024-01-07T04:35:52.777Z,14.23
2024-01-07T04:36:25.006Z,14.50
2024-01-07T04:36:57.147Z,14.67
2024-01-07T04:37:29.161Z,14.67
2024-01-07T04:38:01.311Z,15.13
2024-01-07T04:38:33.353Z,15.17
2024-01-07T04:39:05.775Z,15.30
2024-01-07T04:39:37.883Z,14.80
2024-01-07T04:40:13.120Z,14.57
2024-01-07T04:40:45.138Z,13.67
2024-01-07T04:41:20.441Z,13.07
2024-01-07T04:41:52.453Z,14.17
2024-01-07T04:42:24.651Z,13.30
2024-01-07T04:42:56.677Z,13.03
2024-01-07T04:43:28.678Z,13.17
2024-01-07T04:44:00.766Z,13.77
2024-01-07T04:44:32.891Z,14.03
2024-01-07T04:45:05.814Z,12.27
2024-01-07T04:45:37.810Z,12.93
2024-01-07T04:46:10.056Z,13.33
2024-01-07T04:46:42.252Z,13.60
2024-01-07T04:47:27.918Z,13.03
2024-01-07T04:48:00.116Z,12.47
2024-01-07T04:48:32.331Z,12.47
2024-01-07T04:49:04.612Z,12.87
2024-01-07T04:49:36.994Z,13.63
2024-01-07T04:50:10.430Z,12.67
2024-01-07T04:50:42.856Z,13.17
2024-01-07T04:51:14.850Z,13.13
2024-01-07T04:51:47.439Z,13.20
2024-01-07T04:52:19.536Z,12.70
2024-01-07T04:52:51.585Z,12.77
2024-01-07T04:53:23.842Z,12.63
2024-01-07T04:53:55.852Z,12.80
2024-01-07T04:54:27.913Z,13.27
2024-01-07T04:55:00.002Z,14.43
2024-01-07T04:55:33.584Z,13.60
2024-01-07T04:56:06.365Z,13.40
2024-01-07T04:56:38.380Z,13.87
2024-01-07T04:57:10.425Z,14.13
2024-01-07T04:57:42.622Z,14.37
2024-01-07T04:58:14.823Z,13.13
2024-01-07T04:58:46.925Z,13.30
2024-01-07T04:59:18.971Z,13.73
2024-01-07T04:59:51.779Z,14.50
2024-01-07T05:00:23.923Z,13.83
2024-01-07T05:00:56.205Z,14.37
2024-01-07T05:01:28.405Z,14.50
2024-01-07T05:02:00.783Z,14.03
2024-01-07T05:02:32.869Z,14.53
2024-01-07T05:03:05.372Z,14.13
2024-01-07T05:03:37.525Z,14.00
2024-01-07T05:04:09.635Z,13.37
2024-01-07T05:04:43.040Z,13.30
2024-01-07T05:05:15.169Z,13.73
2024-01-07T05:05:47.358Z,13.17
2024-01-07T05:06:19.428Z,13.10
2024-01-07T05:06:54.300Z,13.10
2024-01-07T05:07:26.671Z,13.87
2024-01-07T05:08:02.055Z,14.10
2024-01-07T05:08:34.110Z,15.40
2024-01-07T05:09:06.278Z,15.33
2024-01-07T05:09:38.334Z,14.67
2024-01-07T05:10:11.160Z,14.23
2024-01-07T05:10:44.751Z,13.73
2024-01-07T05:11:16.868Z,14.43
2024-01-07T05:11:48.919Z,14.40
2024-01-07T05:12:20.930Z,13.77
2024-01-07T05:12:53.532Z,13.27
2024-01-07T05:13:25.639Z,13.97
2024-01-07T05:13:57.693Z,13.87
2024-01-07T05:14:29.836Z,13.63
2024-01-07T05:15:01.848Z,13.47
2024-01-07T05:15:33.974Z,13.73
2024-01-07T05:16:06.598Z,14.03
2024-01-07T05:16:39.037Z,13.47
2024-01-07T05:17:11.159Z,14.83
2024-01-07T05:17:44.201Z,14.33
2024-01-07T05:18:19.127Z,13.50
2024-01-07T05:18:51.697Z,13.83
2024-01-07T05:19:23.935Z,13.63
2024-01-07T05:19:56.162Z,14.00
2024-01-07T05:20:28.215Z,14.70
2024-01-07T05:21:00.315Z,15.03
2024-01-07T05:21:32.584Z,17.13
2024-01-07T05:22:04.980Z,18.40
2024-01-07T05:22:37.157Z,18.20
2024-01-07T05:23:09.184Z,17.63
2024-01-07T05:23:41.356Z,18.73
2024-01-07T05:24:13.448Z,18.40
2024-01-07T05:24:45.712Z,18.07
2024-01-07T05:25:18.213Z,18.17
2024-01-07T05:25:51.633Z,17.80
2024-01-07T05:26:23.866Z,17.33
2024-01-07T05:26:55.871Z,18.10
2024-01-07T05:27:30.582Z,19.10
2024-01-07T05:28:02.682Z,18.70
2024-01-07T05:28:34.766Z,19.10
2024-01-07T05:29:06.813Z,19.73
2024-01-07T05:29:38.851Z,19.70
2024-01-07T05:30:11.419Z,20.03
2024-01-07T05:30:45.451Z,19.70
2024-01-07T05:31:17.791Z,18.93
2024-01-07T05:31:50.006Z,18.13
2024-01-07T05:32:22.395Z,19.37
2024-01-07T05:32:54.544Z,19.17
2024-01-07T05:33:26.731Z,18.67
2024-01-07T05:33:58.906Z,17.90
2024-01-07T05:34:31.366Z,18.87
2024-01-07T05:35:04.036Z,19.20
2024-01-07T05:35:36.338Z,18.10
2024-01-07T05:36:08.627Z,15.57
2024-01-07T05:36:40.729Z,14.73
2024-01-07T05:37:15.126Z,15.40
2024-01-07T05:37:47.106Z,15.27
2024-01-07T05:38:19.116Z,14.87
2024-01-07T05:38:51.170Z,15.77
2024-01-07T05:39:23.560Z,15.27
2024-01-07T05:39:55.555Z,14.97
2024-01-07T05:40:28.871Z,16.57
2024-01-07T05:41:02.321Z,16.03
2024-01-07T05:41:34.343Z,16.53
2024-01-07T05:42:07.266Z,17.27
2024-01-07T05:42:39.408Z,17.60
2024-01-07T05:43:11.541Z,18.20
2024-01-07T05:43:43.819Z,20.03
2024-01-07T05:44:15.813Z,18.47
2024-01-07T05:44:47.890Z,18.27
2024-01-07T05:45:19.881Z,18.63
2024-01-07T05:45:52.200Z,16.90
2024-01-07T05:46:24.320Z,15.70
2024-01-07T05:46:56.320Z,14.87
2024-01-07T05:47:28.410Z,15.03
2024-01-07T05:48:00.477Z,13.17
2024-01-07T05:48:42.438Z,12.80
2024-01-07T05:49:14.754Z,13.83
2024-01-07T05:49:46.938Z,16.53
2024-01-07T05:50:19.022Z,15.67
2024-01-07T05:50:57.078Z,14.70
2024-01-07T05:51:29.197Z,12.33
2024-01-07T05:52:01.275Z,12.23
2024-01-07T05:52:33.332Z,12.57
2024-01-07T05:53:05.644Z,12.60
2024-01-07T05:53:37.800Z,13.00
2024-01-07T05:54:09.834Z,15.13
2024-01-07T05:54:41.885Z,14.30
2024-01-07T05:55:14.182Z,12.50
2024-01-07T05:55:46.277Z,12.83
2024-01-07T05:56:19.670Z,13.30
2024-01-07T05:56:52.205Z,14.43
2024-01-07T05:57:24.276Z,15.47
2024-01-07T05:57:56.398Z,15.97
2024-01-07T05:58:28.496Z,17.33
2024-01-07T05:59:00.589Z,16.60
2024-01-07T05:59:32.596Z,16.50
2024-01-07T06:00:05.703Z,17.13
2024-01-07T06:00:37.832Z,17.87
2024-01-07T06:01:10.276Z,18.03
2024-01-07T06:01:42.836Z,18.37
2024-01-07T06:02:14.937Z,18.63
2024-01-07T06:02:47.177Z,18.63
2024-01-07T06:03:19.338Z,18.43
2024-01-07T06:03:51.476Z,17.60
2024-01-07T06:04:23.641Z,18.03
2024-01-07T06:04:55.859Z,19.53
2024-01-07T06:05:28.166Z,18.67
2024-01-07T06:06:00.395Z,18.70
2024-01-07T06:06:32.780Z,19.20
2024-01-07T06:07:05.091Z,19.23
2024-01-07T06:07:37.268Z,19.03
2024-01-07T06:08:09.494Z,19.30
2024-01-07T06:08:41.961Z,17.97
2024-01-07T06:09:14.228Z,18.40
2024-01-07T06:09:46.286Z,17.80
2024-01-07T06:10:18.627Z,16.77
2024-01-07T06:10:50.672Z,17.23
2024-01-07T06:11:24.058Z,17.57
2024-01-07T06:11:56.539Z,16.60
2024-01-07T06:12:28.646Z,15.93
2024-01-07T06:13:00.686Z,15.00
2024-01-07T06:13:32.804Z,13.50
2024-01-07T06:14:04.821Z,13.27
2024-01-07T06:14:36.848Z,12.80
2024-01-07T06:15:09.618Z,11.93
2024-01-07T06:15:41.823Z,11.40
2024-01-07T06:16:14.137Z,9.87
2024-01-07T06:16:46.174Z,9.77
2024-01-07T06:17:18.228Z,10.13
2024-01-07T06:17:50.348Z,10.70
2024-01-07T06:18:22.537Z,9.13
2024-01-07T06:18:54.757Z,8.27
2024-01-07T06:19:26.816Z,7.80
2024-01-07T06:19:59.018Z,6.73
2024-01-07T06:20:31.050Z,5.97
2024-01-07T06:21:03.147Z,6.43
2024-01-07T06:21:35.274Z,7.50
2024-01-07T06:22:07.351Z,7.67
2024-01-07T06:22:39.423Z,7.07
2024-01-07T06:23:11.393Z,6.87
2024-01-07T06:23:43.494Z,6.77
2024-01-07T06:24:15.539Z,7.17
2024-01-07T06:24:47.588Z,6.87
2024-01-07T06:25:19.801Z,6.87
2024-01-07T06:25:51.936Z,6.70
2024-01-07T06:26:25.290Z,6.73
2024-01-07T06:26:57.296Z,6.67
2024-01-07T06:27:29.302Z,7.80
2024-01-07T06:28:01.587Z,8.80
2024-01-07T06:28:33.935Z,7.53
2024-01-07T06:29:06.110Z,6.37
2024-01-07T06:29:38.146Z,7.03
2024-01-07T06:30:10.922Z,7.97
2024-01-07T06:30:43.113Z,6.90
2024-01-07T06:31:15.282Z,6.80
2024-01-07T06:31:47.426Z,6.80
2024-01-07T06:32:19.568Z,6.17
2024-01-07T06:32:51.650Z,6.20
2024-01-07T06:33:23.819Z,5.70
2024-01-07T06:33:56.083Z,6.30
2024-01-07T06:34:28.251Z,7.47
2024-01-07T06:35:00.445Z,6.77
2024-01-07T06:35:32.480Z,8.37
2024-01-07T06:36:06.758Z,9.60
2024-01-07T06:36:38.811Z,11.43
2024-01-07T06:37:10.989Z,12.17
2024-01-07T06:37:43.085Z,12.17
2024-01-07T06:38:15.124Z,12.53
2024-01-07T06:38:47.252Z,13.63
2024-01-07T06:39:19.243Z,14.10
2024-01-07T06:39:51.272Z,14.43
2024-01-07T06:40:23.467Z,13.17
2024-01-07T06:40:58.494Z,12.23
2024-01-07T06:41:33.620Z,11.70
2024-01-07T06:42:06.557Z,11.50
2024-01-07T06:42:38.600Z,11.03
2024-01-07T06:43:10.711Z,10.23
2024-01-07T06:43:42.824Z,10.30
2024-01-07T06:44:14.851Z,10.27
2024-01-07T06:44:47.033Z,9.87
2024-01-07T06:45:19.036Z,9.50
2024-01-07T06:45:51.170Z,9.23
2024-01-07T06:46:23.151Z,8.37
2024-01-07T06:46:55.174Z,7.80
2024-01-07T06:47:27.280Z,8.13
2024-01-07T06:47:59.478Z,8.70
2024-01-07T06:48:31.662Z,7.60
2024-01-07T06:49:03.881Z,7.40
2024-01-07T06:49:36.036Z,7.87
2024-01-07T06:50:08.768Z,7.60
2024-01-07T06:50:41.000Z,7.73
2024-01-07T06:51:12.991Z,7.27
2024-01-07T06:51:45.008Z,7.50
2024-01-07T06:52:17.153Z,7.37
2024-01-07T06:52:49.296Z,8.00
2024-01-07T06:53:21.294Z,7.67
2024-01-07T06:53:53.350Z,8.10
2024-01-07T06:54:26.625Z,7.63
2024-01-07T06:54:58.885Z,7.83
2024-01-07T06:55:30.997Z,7.57
2024-01-07T06:56:03.102Z,8.10
2024-01-07T06:56:36.465Z,8.67
2024-01-07T06:57:08.708Z,9.30
2024-01-07T06:57:40.861Z,8.53
2024-01-07T06:58:13.017Z,9.20
2024-01-07T06:58:45.645Z,9.20
2024-01-07T06:59:17.706Z,8.83